Time;durP1;ratioP1;P1;durP2;ratioP2;P2;SDS_P1;SDS_P2;PMS_P1;PMS_P2;Temp;Humidity;BMP_temperature;BMP_pressure;BME280_temperature;BME280_humidity;BME280_pressure;Samples;Min_cycle;Max_cycle;Signal;HPM_P1;HPM_P2
2021/11/05 00:00:33;;;;;;;2.78;2.58;;;;;;;;;;2095839;28;20378;-63
2021/11/05 00:01:52;;;;;;;2.92;2.72;;;;;;;;;;2096450;28;20028;-63
2021/11/05 00:03:11;;;;;;;2.95;2.72;;;;;;;;;;2097586;28;20024;-63
2021/11/05 00:04:29;;;;;;;2.58;2.40;;;;;;;;;;2097954;28;20483;-64
2021/11/05 00:05:48;;;;;;;3.40;2.58;;;;;;;;;;2098916;28;20036;-63
2021/11/05 00:07:07;;;;;;;2.95;2.75;;;;;;;;;;2095539;28;20104;-63
2021/11/05 00:08:26;;;;;;;3.78;2.53;;;;;;;;;;2098074;28;20037;-63
2021/11/05 00:09:45;;;;;;;2.67;2.47;;;;;;;;;;2098400;28;20044;-63
2021/11/05 00:11:04;;;;;;;4.13;2.75;;;;;;;;;;2096536;28;20111;-63
2021/11/05 00:12:23;;;;;;;2.88;2.38;;;;;;;;;;2098061;28;20024;-64
2021/11/05 00:13:42;;;;;;;4.18;2.63;;;;;;;;;;2097568;28;20502;-63
2021/11/05 00:15:01;;;;;;;3.13;2.80;;;;;;;;;;2096547;28;20045;-63
2021/11/05 00:16:20;;;;;;;2.90;2.70;;;;;;;;;;2099654;28;20036;-63
2021/11/05 00:17:39;;;;;;;2.95;2.65;;;;;;;;;;2096895;28;20499;-63
2021/11/05 00:18:58;;;;;;;3.72;2.75;;;;;;;;;;2098371;28;20024;-63
2021/11/05 00:20:17;;;;;;;2.30;2.17;;;;;;;;;;2097906;28;20029;-63
2021/11/05 00:21:36;;;;;;;3.75;2.20;;;;;;;;;;2096410;28;20040;-63
2021/11/05 00:22:55;;;;;;;3.13;2.83;;;;;;;;;;2096642;28;20036;-62
2021/11/05 00:24:14;;;;;;;2.70;2.22;;;;;;;;;;2098053;28;20032;-63
2021/11/05 00:25:32;;;;;;;2.58;2.38;;;;;;;;;;2095493;28;20041;-64
2021/11/05 00:26:51;;;;;;;3.10;2.00;;;;;;;;;;2097197;28;20413;-64
2021/11/05 00:28:10;;;;;;;3.55;2.33;;;;;;;;;;2098721;28;20036;-64
2021/11/05 00:29:29;;;;;;;4.22;2.30;;;;;;;;;;2094739;28;20111;-62
2021/11/05 00:30:48;;;;;;;2.67;2.47;;;;;;;;;;2098949;28;20059;-63
2021/11/05 00:32:07;;;;;;;3.15;2.25;;;;;;;;;;2095850;28;20052;-64
2021/11/05 00:33:26;;;;;;;2.40;2.22;;;;;;;;;;2094950;28;20033;-62
2021/11/05 00:34:45;;;;;;;2.53;2.33;;;;;;;;;;2095943;28;20037;-63
2021/11/05 00:36:04;;;;;;;2.28;2.10;;;;;;;;;;2098004;28;20395;-63
2021/11/05 00:37:23;;;;;;;2.63;2.13;;;;;;;;;;2096939;28;20025;-64
2021/11/05 00:38:42;;;;;;;2.47;2.33;;;;;;;;;;2097355;28;20033;-64
2021/11/05 00:40:01;;;;;;;2.40;2.30;;;;;;;;;;2096577;28;20017;-64
2021/11/05 00:41:20;;;;;;;2.38;2.17;;;;;;;;;;2096294;28;20040;-63
2021/11/05 00:42:39;;;;;;;2.65;2.45;;;;;;;;;;2096070;28;20426;-64
2021/11/05 00:43:58;;;;;;;3.03;2.30;;;;;;;;;;2096188;28;20021;-63
2021/11/05 00:45:17;;;;;;;3.70;2.20;;;;;;;;;;2096568;28;20028;-64
2021/11/05 00:46:36;;;;;;;2.33;2.13;;;;;;;;;;2098284;28;20028;-63
2021/11/05 00:47:55;;;;;;;2.50;2.30;;;;;;;;;;2093953;28;20017;-66
2021/11/05 00:49:14;;;;;;;4.53;2.30;;;;;;;;;;2097494;28;20024;-63
2021/11/05 00:50:33;;;;;;;2.20;2.00;;;;;;;;;;2096729;28;20040;-65
2021/11/05 00:51:52;;;;;;;2.40;2.20;;;;;;;;;;2098668;28;20033;-63
2021/11/05 00:53:11;;;;;;;2.00;1.88;;;;;;;;;;2094902;28;20490;-64
2021/11/05 00:54:30;;;;;;;2.55;2.10;;;;;;;;;;2096780;28;20032;-63
2021/11/05 00:55:49;;;;;;;2.10;2.00;;;;;;;;;;2097312;28;20024;-63
2021/11/05 00:57:08;;;;;;;2.63;2.15;;;;;;;;;;2096466;28;20021;-63
2021/11/05 00:58:27;;;;;;;2.25;2.10;;;;;;;;;;2097171;28;20032;-64
2021/11/05 00:59:45;;;;;;;2.42;2.13;;;;;;;;;;2096272;28;20074;-64
2021/11/05 01:01:04;;;;;;;3.33;2.10;;;;;;;;;;2098418;28;20032;-63
2021/11/05 01:02:23;;;;;;;3.47;1.58;;;;;;;;;;2093198;28;20701;-63
2021/11/05 01:03:42;;;;;;;2.58;2.10;;;;;;;;;;2096564;28;20127;-63
2021/11/05 01:05:01;;;;;;;1.90;1.80;;;;;;;;;;2096014;28;20107;-63
2021/11/05 01:06:20;;;;;;;1.90;1.80;;;;;;;;;;2099067;28;20056;-62
2021/11/05 01:07:39;;;;;;;1.80;1.70;;;;;;;;;;2097306;28;20028;-62
2021/11/05 01:08:58;;;;;;;2.00;1.90;;;;;;;;;;2098360;28;20028;-63
2021/11/05 01:10:17;;;;;;;2.75;1.88;;;;;;;;;;2098515;28;20028;-63
2021/11/05 01:11:36;;;;;;;1.98;1.88;;;;;;;;;;2095438;28;20048;-63
2021/11/05 01:12:55;;;;;;;1.90;1.80;;;;;;;;;;2096164;28;20107;-63
2021/11/05 01:14:14;;;;;;;1.40;1.30;;;;;;;;;;2096900;28;20028;-63
2021/11/05 01:15:33;;;;;;;2.40;1.50;;;;;;;;;;2096135;28;20395;-63
2021/11/05 01:16:52;;;;;;;2.28;1.83;;;;;;;;;;2096242;28;20029;-64
2021/11/05 01:18:11;;;;;;;2.00;1.80;;;;;;;;;;2096322;28;20506;-63
2021/11/05 01:19:29;;;;;;;2.20;2.10;;;;;;;;;;2097019;28;20887;-63
2021/11/05 01:20:49;;;;;;;1.60;1.50;;;;;;;;;;2099354;28;20025;-63
2021/11/05 01:22:07;;;;;;;1.73;1.63;;;;;;;;;;2095179;28;20037;-62
2021/11/05 01:23:26;;;;;;;1.63;1.52;;;;;;;;;;2095233;28;20531;-63
2021/11/05 01:24:46;;;;;;;1.85;1.55;;;;;;;;;;2098241;28;20430;-63
2021/11/05 01:26:05;;;;;;;1.98;1.80;;;;;;;;;;2098077;28;20103;-64
2021/11/05 01:27:23;;;;;;;1.60;1.50;;;;;;;;;;2097040;28;20041;-63
2021/11/05 01:28:42;;;;;;;1.70;1.60;;;;;;;;;;2096892;28;20064;-64
2021/11/05 01:30:02;;;;;;;1.58;1.27;;;;;;;;;;2094905;28;20021;-64
2021/11/05 01:31:22;;;;;;;1.50;1.35;;;;;;;;;;2096459;28;21795;-65
2021/11/05 01:32:41;;;;;;;1.70;1.60;;;;;;;;;;2097717;28;20029;-64
2021/11/05 01:34:00;;;;;;;1.60;1.30;;;;;;;;;;2097187;28;20032;-63
2021/11/05 01:35:19;;;;;;;3.30;1.52;;;;;;;;;;2096669;28;20214;-63
2021/11/05 01:36:38;;;;;;;1.30;1.20;;;;;;;;;;2097604;28;20036;-63
2021/11/05 01:37:57;;;;;;;1.40;1.30;;;;;;;;;;2098748;28;20037;-63
2021/11/05 01:39:16;;;;;;;1.25;1.15;;;;;;;;;;2098559;28;20037;-63
2021/11/05 01:40:36;;;;;;;1.30;1.13;;;;;;;;;;2096815;28;20028;-64
2021/11/05 01:41:56;;;;;;;1.10;1.00;;;;;;;;;;2096521;28;20036;-64
2021/11/05 01:43:15;;;;;;;1.10;1.10;;;;;;;;;;2097151;28;20044;-65
2021/11/05 01:44:34;;;;;;;0.95;0.90;;;;;;;;;;2096485;28;20123;-64
2021/11/05 01:45:53;;;;;;;0.90;0.90;;;;;;;;;;2096555;28;20186;-63
2021/11/05 01:47:12;;;;;;;1.38;0.90;;;;;;;;;;2096170;28;20032;-63
2021/11/05 01:48:31;;;;;;;1.67;1.13;;;;;;;;;;2095649;28;20041;-63
2021/11/05 01:49:49;;;;;;;2.25;1.10;;;;;;;;;;2092547;28;20075;-64
2021/11/05 01:51:08;;;;;;;1.25;1.20;;;;;;;;;;2095730;28;20390;-62
2021/11/05 01:52:27;;;;;;;0.60;0.60;;;;;;;;;;2098222;28;20483;-63
2021/11/05 01:53:46;;;;;;;1.35;0.90;;;;;;;;;;2094506;28;20044;-63
2021/11/05 01:55:06;;;;;;;0.82;0.82;;;;;;;;;;2096508;28;20020;-63
2021/11/05 01:56:25;;;;;;;1.83;0.77;;;;;;;;;;2096419;28;20028;-63
2021/11/05 01:57:45;;;;;;;0.82;0.82;;;;;;;;;;2096031;28;20029;-63
2021/11/05 01:59:04;;;;;;;0.95;0.95;;;;;;;;;;2095038;28;20029;-63
2021/11/05 02:00:24;;;;;;;1.40;0.77;;;;;;;;;;2097132;28;20039;-63
2021/11/05 02:01:42;;;;;;;1.02;0.93;;;;;;;;;;2096535;28;20052;-63
2021/11/05 02:03:01;;;;;;;1.92;0.90;;;;;;;;;;2101178;28;20402;-63
2021/11/05 02:04:21;;;;;;;1.05;0.77;;;;;;;;;;2095655;28;20142;-63
2021/11/05 02:05:40;;;;;;;4.47;1.00;;;;;;;;;;2095011;28;20024;-64
2021/11/05 02:06:59;;;;;;;3.13;1.10;;;;;;;;;;2098124;28;20028;-63
2021/11/05 02:08:20;;;;;;;0.75;0.75;;;;;;;;;;2098418;28;20382;-63
2021/11/05 02:09:39;;;;;;;2.55;0.90;;;;;;;;;;2096125;28;20025;-64
2021/11/05 02:11:02;;;;;;;0.85;0.80;;;;;;;;;;2096498;28;20024;-63
2021/11/05 02:12:21;;;;;;;0.90;0.90;;;;;;;;;;2096583;28;20111;-63
2021/11/05 02:13:41;;;;;;;0.85;0.80;;;;;;;;;;2097255;28;20516;-64
2021/11/05 02:15:00;;;;;;;0.70;0.70;;;;;;;;;;2097216;28;20033;-64
2021/11/05 02:16:21;;;;;;;1.33;1.17;;;;;;;;;;2098530;28;20527;-65
2021/11/05 02:17:39;;;;;;;1.13;0.90;;;;;;;;;;2098491;28;20040;-63
2021/11/05 02:18:58;;;;;;;0.80;0.80;;;;;;;;;;2098167;28;20081;-63
2021/11/05 02:20:19;;;;;;;0.90;0.90;;;;;;;;;;2096437;28;20064;-63
2021/11/05 02:21:39;;;;;;;0.85;0.85;;;;;;;;;;2099182;28;20444;-62
2021/11/05 02:22:59;;;;;;;1.20;1.10;;;;;;;;;;2098404;28;20032;-62
2021/11/05 02:24:18;;;;;;;1.15;1.05;;;;;;;;;;2097867;28;20033;-62
2021/11/05 02:25:38;;;;;;;0.90;0.90;;;;;;;;;;2099904;28;20024;-62
2021/11/05 02:26:58;;;;;;;0.80;0.80;;;;;;;;;;2098100;28;20482;-63
2021/11/05 02:28:17;;;;;;;1.33;1.23;;;;;;;;;;2094790;28;20052;-63
2021/11/05 02:29:36;;;;;;;1.23;1.13;;;;;;;;;;2097599;28;20032;-66
2021/11/05 02:30:55;;;;;;;1.05;1.05;;;;;;;;;;2099545;28;20494;-63
2021/11/05 02:32:14;;;;;;;0.95;0.95;;;;;;;;;;2099779;28;20458;-62
2021/11/05 02:33:33;;;;;;;1.05;1.05;;;;;;;;;;2099208;28;20511;-64
2021/11/05 02:34:52;;;;;;;1.00;1.00;;;;;;;;;;2096899;28;20355;-63
2021/11/05 02:36:11;;;;;;;1.75;1.23;;;;;;;;;;2098615;28;20048;-63
2021/11/05 02:37:30;;;;;;;1.20;1.10;;;;;;;;;;2097072;28;20033;-63
2021/11/05 02:38:49;;;;;;;2.53;1.10;;;;;;;;;;2098057;28;20257;-64
2021/11/05 02:40:09;;;;;;;2.97;1.08;;;;;;;;;;2097899;28;20032;-65
2021/11/05 02:41:28;;;;;;;1.08;1.00;;;;;;;;;;2098722;28;20024;-64
2021/11/05 02:42:47;;;;;;;0.93;0.93;;;;;;;;;;2096645;28;20037;-63
2021/11/05 02:44:06;;;;;;;0.90;0.90;;;;;;;;;;2099785;28;20859;-63
2021/11/05 02:45:25;;;;;;;1.75;1.10;;;;;;;;;;2098696;28;20514;-63
2021/11/05 02:46:43;;;;;;;0.80;0.80;;;;;;;;;;2098179;28;20025;-64
2021/11/05 02:48:03;;;;;;;1.50;1.40;;;;;;;;;;2099517;28;20107;-63
2021/11/05 02:49:22;;;;;;;0.90;0.90;;;;;;;;;;2097494;28;20028;-64
2021/11/05 02:50:41;;;;;;;1.50;1.00;;;;;;;;;;2096564;28;20029;-64
2021/11/05 02:51:59;;;;;;;0.88;0.88;;;;;;;;;;2096360;28;20108;-64
2021/11/05 02:53:18;;;;;;;0.90;0.90;;;;;;;;;;2097335;28;20494;-64
2021/11/05 02:54:37;;;;;;;1.50;1.17;;;;;;;;;;2097932;28;20107;-62
2021/11/05 02:55:57;;;;;;;1.00;0.93;;;;;;;;;;2095398;28;20028;-62
2021/11/05 02:57:16;;;;;;;2.88;1.08;;;;;;;;;;2096625;28;20024;-63
2021/11/05 02:58:35;;;;;;;1.45;1.25;;;;;;;;;;2099159;28;20024;-63
2021/11/05 02:59:54;;;;;;;1.05;1.02;;;;;;;;;;2096026;28;20032;-64
2021/11/05 03:01:13;;;;;;;1.40;1.35;;;;;;;;;;2096877;28;20032;-63
2021/11/05 03:02:32;;;;;;;1.50;1.40;;;;;;;;;;2098261;28;20478;-63
2021/11/05 03:03:51;;;;;;;1.15;1.08;;;;;;;;;;2097278;28;20041;-63
2021/11/05 03:05:11;;;;;;;1.58;1.15;;;;;;;;;;2097512;28;20036;-63
2021/11/05 03:06:37;;;;;;;1.30;1.20;;;;;;;;;;2098095;28;20394;-64
2021/11/05 03:07:56;;;;;;;1.15;1.15;;;;;;;;;;2096842;28;20041;-62
2021/11/05 03:09:17;;;;;;;0.80;0.80;;;;;;;;;;2098588;28;20025;-62
2021/11/05 03:10:36;;;;;;;1.08;1.08;;;;;;;;;;2096996;28;20032;-64
2021/11/05 03:11:55;;;;;;;1.17;1.10;;;;;;;;;;2092791;28;20037;-63
2021/11/05 03:13:14;;;;;;;1.30;1.20;;;;;;;;;;2097090;28;20059;-63
2021/11/05 03:14:33;;;;;;;1.05;1.05;;;;;;;;;;2099238;28;20024;-63
2021/11/05 03:15:52;;;;;;;0.80;0.80;;;;;;;;;;2095670;28;20115;-63
2021/11/05 03:17:11;;;;;;;1.10;1.10;;;;;;;;;;2098963;28;20025;-63
2021/11/05 03:18:34;;;;;;;0.90;0.90;;;;;;;;;;2097791;28;20029;-62
2021/11/05 03:19:53;;;;;;;1.50;1.15;;;;;;;;;;2101489;28;20024;-63
2021/11/05 03:21:12;;;;;;;1.23;1.13;;;;;;;;;;2098522;28;20037;-64
2021/11/05 03:22:31;;;;;;;1.55;1.45;;;;;;;;;;2098830;28;20036;-64
2021/11/05 03:23:50;;;;;;;1.17;1.08;;;;;;;;;;2097881;28;20064;-63
2021/11/05 03:25:09;;;;;;;1.20;1.20;;;;;;;;;;2098058;28;20044;-63
2021/11/05 03:26:28;;;;;;;1.83;1.35;;;;;;;;;;2096137;28;20040;-64
2021/11/05 03:27:47;;;;;;;1.40;1.10;;;;;;;;;;2097600;28;20107;-63
2021/11/05 03:29:06;;;;;;;0.98;0.98;;;;;;;;;;2098464;28;20386;-65
2021/11/05 03:30:25;;;;;;;2.45;1.05;;;;;;;;;;2097870;28;20403;-61
2021/11/05 03:31:44;;;;;;;1.10;1.10;;;;;;;;;;2098983;28;20559;-62
2021/11/05 03:33:03;;;;;;;1.30;1.10;;;;;;;;;;2097589;28;20025;-62
2021/11/05 03:34:23;;;;;;;1.30;1.20;;;;;;;;;;2098694;28;20063;-62
2021/11/05 03:35:42;;;;;;;1.08;0.98;;;;;;;;;;2097980;28;20036;-63
2021/11/05 03:37:01;;;;;;;1.23;1.13;;;;;;;;;;2097941;28;20020;-63
2021/11/05 03:38:20;;;;;;;1.00;0.90;;;;;;;;;;2097939;28;20463;-62
2021/11/05 03:39:39;;;;;;;1.00;1.00;;;;;;;;;;2100241;28;20394;-62
2021/11/05 03:40:57;;;;;;;1.40;1.30;;;;;;;;;;2096277;28;20395;-62
2021/11/05 03:42:16;;;;;;;1.05;0.95;;;;;;;;;;2096842;28;20040;-63
2021/11/05 03:43:35;;;;;;;1.23;0.90;;;;;;;;;;2099390;28;20111;-64
2021/11/05 03:44:54;;;;;;;1.13;1.02;;;;;;;;;;2098710;28;20029;-65
2021/11/05 03:46:13;;;;;;;1.23;1.13;;;;;;;;;;2097428;28;20406;-63
2021/11/05 03:47:33;;;;;;;1.42;1.33;;;;;;;;;;2097948;28;20040;-63
2021/11/05 03:48:52;;;;;;;1.00;1.00;;;;;;;;;;2095621;28;20017;-64
2021/11/05 03:50:11;;;;;;;2.50;1.00;;;;;;;;;;2095834;28;20470;-63
2021/11/05 03:51:30;;;;;;;0.95;0.80;;;;;;;;;;2099350;28;20036;-64
2021/11/05 03:52:49;;;;;;;0.85;0.85;;;;;;;;;;2097698;28;20029;-63
2021/11/05 03:54:08;;;;;;;2.80;1.02;;;;;;;;;;2098096;28;20020;-63
2021/11/05 03:55:27;;;;;;;1.52;1.17;;;;;;;;;;2097708;28;20111;-62
2021/11/05 03:56:46;;;;;;;1.48;0.80;;;;;;;;;;2098097;28;20390;-66
2021/11/05 03:58:05;;;;;;;0.85;0.85;;;;;;;;;;2099223;28;20021;-65
2021/11/05 03:59:24;;;;;;;1.05;0.75;;;;;;;;;;2098653;28;20037;-63
2021/11/05 04:00:43;;;;;;;3.35;1.08;;;;;;;;;;2096870;28;20036;-63
2021/11/05 04:02:02;;;;;;;1.02;1.02;;;;;;;;;;2097877;28;20040;-64
2021/11/05 04:03:21;;;;;;;0.73;0.70;;;;;;;;;;2096744;28;20063;-63
2021/11/05 04:04:40;;;;;;;0.80;0.80;;;;;;;;;;2100900;28;20028;-63
2021/11/05 04:05:59;;;;;;;1.05;0.95;;;;;;;;;;2097201;28;20563;-63
2021/11/05 04:07:18;;;;;;;1.08;0.75;;;;;;;;;;2099404;28;20073;-62
2021/11/05 04:08:37;;;;;;;1.55;0.80;;;;;;;;;;2098061;28;20040;-63
2021/11/05 04:09:56;;;;;;;1.25;0.80;;;;;;;;;;2097384;28;20044;-63
2021/11/05 04:11:15;;;;;;;1.10;1.10;;;;;;;;;;2098521;28;20036;-62
2021/11/05 04:12:35;;;;;;;0.95;0.95;;;;;;;;;;2098820;28;20036;-63
2021/11/05 04:13:54;;;;;;;1.88;1.10;;;;;;;;;;2099850;28;20032;-63
2021/11/05 04:15:13;;;;;;;0.98;0.98;;;;;;;;;;2096337;28;20029;-63
2021/11/05 04:16:32;;;;;;;0.95;0.90;;;;;;;;;;2099282;28;20028;-63
2021/11/05 04:17:51;;;;;;;0.80;0.80;;;;;;;;;;2099166;28;20020;-64
2021/11/05 04:19:09;;;;;;;0.80;0.80;;;;;;;;;;2098400;28;20104;-63
2021/11/05 04:20:28;;;;;;;3.88;0.95;;;;;;;;;;2098040;28;20025;-63
2021/11/05 04:21:47;;;;;;;0.93;0.93;;;;;;;;;;2093307;28;20029;-63
2021/11/05 04:23:07;;;;;;;1.05;0.80;;;;;;;;;;2095721;28;20037;-63
2021/11/05 04:24:26;;;;;;;0.75;0.75;;;;;;;;;;2096419;28;20041;-64
2021/11/05 04:25:45;;;;;;;0.80;0.80;;;;;;;;;;2097839;28;20029;-63
2021/11/05 04:27:04;;;;;;;0.98;0.98;;;;;;;;;;2092651;28;20499;-62
2021/11/05 04:28:23;;;;;;;3.33;1.27;;;;;;;;;;2097707;28;20040;-62
2021/11/05 04:29:42;;;;;;;0.85;0.80;;;;;;;;;;2097421;28;20064;-62
2021/11/05 04:31:01;;;;;;;0.68;0.68;;;;;;;;;;2096796;28;20025;-63
2021/11/05 04:32:20;;;;;;;1.80;0.85;;;;;;;;;;2097541;28;20025;-62
2021/11/05 04:33:39;;;;;;;1.00;0.90;;;;;;;;;;2096924;28;20025;-63
2021/11/05 04:34:58;;;;;;;1.17;1.02;;;;;;;;;;2095441;28;20390;-64
2021/11/05 04:36:21;;;;;;;0.88;0.68;;;;;;;;;;2095268;28;20036;-63
2021/11/05 04:37:40;;;;;;;0.80;0.80;;;;;;;;;;2097249;28;20136;-63
2021/11/05 04:38:59;;;;;;;2.38;0.93;;;;;;;;;;2095684;28;20459;-63
2021/11/05 04:40:18;;;;;;;0.70;0.70;;;;;;;;;;2087269;28;20037;-63
2021/11/05 04:41:37;;;;;;;0.88;0.88;;;;;;;;;;2089925;28;20032;-64
2021/11/05 04:42:56;;;;;;;0.70;0.70;;;;;;;;;;2097358;28;20502;-64
2021/11/05 04:44:15;;;;;;;0.90;0.90;;;;;;;;;;2096797;28;20029;-63
2021/11/05 04:45:34;;;;;;;0.80;0.80;;;;;;;;;;2097766;28;20021;-63
2021/11/05 04:46:53;;;;;;;0.50;0.50;;;;;;;;;;2098018;28;20029;-63
2021/11/05 04:48:11;;;;;;;1.17;1.08;;;;;;;;;;2097068;28;20024;-64
2021/11/05 04:49:30;;;;;;;0.70;0.70;;;;;;;;;;2098219;28;20108;-64
2021/11/05 04:50:50;;;;;;;0.80;0.80;;;;;;;;;;2096179;28;20032;-63
2021/11/05 04:52:09;;;;;;;0.80;0.80;;;;;;;;;;2097134;28;20033;-64
2021/11/05 04:53:28;;;;;;;1.00;0.80;;;;;;;;;;2097730;28;20480;-63
2021/11/05 04:54:47;;;;;;;0.68;0.68;;;;;;;;;;2096365;28;20028;-64
2021/11/05 04:56:06;;;;;;;1.75;0.80;;;;;;;;;;2095499;28;20025;-63
2021/11/05 04:57:25;;;;;;;1.50;0.88;;;;;;;;;;2095543;28;20024;-63
2021/11/05 04:58:44;;;;;;;1.33;0.70;;;;;;;;;;2092779;28;20028;-62
2021/11/05 05:00:03;;;;;;;0.90;0.90;;;;;;;;;;2097366;28;20025;-62
2021/11/05 05:01:22;;;;;;;1.63;0.70;;;;;;;;;;2098011;28;20032;-63
2021/11/05 05:02:41;;;;;;;2.00;0.90;;;;;;;;;;2098455;28;20040;-63
2021/11/05 05:04:00;;;;;;;2.20;0.60;;;;;;;;;;2098360;28;20052;-63
2021/11/05 05:05:19;;;;;;;0.63;0.63;;;;;;;;;;2097140;28;20033;-63
2021/11/05 05:06:38;;;;;;;0.80;0.75;;;;;;;;;;2096054;28;20155;-65
2021/11/05 05:07:58;;;;;;;2.58;0.77;;;;;;;;;;2097455;28;20033;-64
2021/11/05 05:09:17;;;;;;;1.48;0.70;;;;;;;;;;2098604;28;20025;-63
2021/11/05 05:10:35;;;;;;;1.92;0.90;;;;;;;;;;2097401;28;20029;-63
2021/11/05 05:11:55;;;;;;;0.60;0.60;;;;;;;;;;2096387;28;20492;-63
2021/11/05 05:13:14;;;;;;;0.60;0.60;;;;;;;;;;2098075;28;20036;-63
2021/11/05 05:14:33;;;;;;;0.70;0.70;;;;;;;;;;2096960;28;20033;-63
2021/11/05 05:15:52;;;;;;;0.80;0.73;;;;;;;;;;2097017;28;20013;-65
2021/11/05 05:17:11;;;;;;;1.15;0.60;;;;;;;;;;2097487;28;20040;-64
2021/11/05 05:18:30;;;;;;;0.98;0.70;;;;;;;;;;2102465;28;20040;-62
2021/11/05 05:19:49;;;;;;;0.77;0.77;;;;;;;;;;2097004;28;20044;-62
2021/11/05 05:21:08;;;;;;;0.60;0.60;;;;;;;;;;2097183;28;20032;-63
2021/11/05 05:22:26;;;;;;;0.52;0.52;;;;;;;;;;2092304;28;20619;-62
2021/11/05 05:23:45;;;;;;;0.70;0.70;;;;;;;;;;2096740;28;20725;-63
2021/11/05 05:25:05;;;;;;;1.23;0.70;;;;;;;;;;2096712;28;20503;-65
2021/11/05 05:26:24;;;;;;;0.70;0.70;;;;;;;;;;2096473;28;20020;-63
2021/11/05 05:27:43;;;;;;;2.10;0.80;;;;;;;;;;2097016;28;20040;-63
2021/11/05 05:29:02;;;;;;;1.85;0.73;;;;;;;;;;2094093;28;20064;-63
2021/11/05 05:30:21;;;;;;;4.35;0.60;;;;;;;;;;2098304;28;20032;-65
2021/11/05 05:31:40;;;;;;;0.85;0.85;;;;;;;;;;2097579;28;20487;-64
2021/11/05 05:32:59;;;;;;;0.70;0.70;;;;;;;;;;2095744;28;20414;-63
2021/11/05 05:34:18;;;;;;;0.70;0.70;;;;;;;;;;2097132;28;20041;-62
2021/11/05 05:35:37;;;;;;;0.80;0.80;;;;;;;;;;2096848;28;20099;-64
2021/11/05 05:36:56;;;;;;;1.15;0.80;;;;;;;;;;2095762;28;20036;-64
2021/11/05 05:38:15;;;;;;;2.22;0.65;;;;;;;;;;2093782;28;20033;-65
2021/11/05 05:39:34;;;;;;;1.05;0.70;;;;;;;;;;2096999;28;20114;-65
2021/11/05 05:40:53;;;;;;;0.80;0.80;;;;;;;;;;2096254;28;20064;-62
2021/11/05 05:42:12;;;;;;;2.17;0.80;;;;;;;;;;2095706;28;20028;-65
2021/11/05 05:43:31;;;;;;;3.13;0.82;;;;;;;;;;2094527;28;20052;-64
2021/11/05 05:44:50;;;;;;;2.28;0.90;;;;;;;;;;2096080;28;20092;-63
2021/11/05 05:46:09;;;;;;;1.27;0.95;;;;;;;;;;2097450;28;20475;-63
2021/11/05 05:47:28;;;;;;;2.67;0.70;;;;;;;;;;2095366;28;20028;-64
2021/11/05 05:48:46;;;;;;;1.13;0.88;;;;;;;;;;2098362;28;20036;-64
2021/11/05 05:50:06;;;;;;;1.23;0.95;;;;;;;;;;2096797;28;20024;-63
2021/11/05 05:51:25;;;;;;;5.00;1.40;;;;;;;;;;2097839;28;20021;-63
2021/11/05 05:52:44;;;;;;;1.23;0.82;;;;;;;;;;2095738;28;20032;-63
2021/11/05 05:54:03;;;;;;;2.65;0.70;;;;;;;;;;2096957;28;20036;-63
2021/11/05 05:55:25;;;;;;;2.03;0.73;;;;;;;;;;2091948;28;20032;-64
2021/11/05 05:56:44;;;;;;;1.35;1.00;;;;;;;;;;2096162;28;20029;-64
2021/11/05 05:58:03;;;;;;;1.42;0.80;;;;;;;;;;2094174;28;20029;-64
2021/11/05 05:59:22;;;;;;;3.55;1.00;;;;;;;;;;2096291;28;20490;-62
2021/11/05 06:00:41;;;;;;;2.47;0.80;;;;;;;;;;2096943;28;20029;-65
2021/11/05 06:02:00;;;;;;;2.40;0.82;;;;;;;;;;2096558;28;20024;-64
2021/11/05 06:03:19;;;;;;;1.30;0.82;;;;;;;;;;2096652;28;20041;-63
2021/11/05 06:04:38;;;;;;;3.45;1.05;;;;;;;;;;2096114;28;20048;-63
2021/11/05 06:05:57;;;;;;;9.05;1.25;;;;;;;;;;2096401;28;20024;-65
2021/11/05 06:07:15;;;;;;;1.65;0.90;;;;;;;;;;2096820;28;20478;-64
2021/11/05 06:08:34;;;;;;;0.80;0.52;;;;;;;;;;2095408;28;20040;-63
2021/11/05 06:09:53;;;;;;;2.03;0.70;;;;;;;;;;2095898;28;20103;-62
2021/11/05 06:11:12;;;;;;;1.10;0.73;;;;;;;;;;2093824;28;20017;-63
2021/11/05 06:12:34;;;;;;;1.02;0.98;;;;;;;;;;2095506;28;20036;-63
2021/11/05 06:13:53;;;;;;;3.03;0.98;;;;;;;;;;2095489;28;20033;-64
2021/11/05 06:15:12;;;;;;;0.93;0.82;;;;;;;;;;2096615;28;20033;-63
2021/11/05 06:16:31;;;;;;;1.30;0.60;;;;;;;;;;2096865;28;20470;-63
2021/11/05 06:17:50;;;;;;;2.25;0.65;;;;;;;;;;2096084;28;20482;-63
2021/11/05 06:19:09;;;;;;;2.30;0.90;;;;;;;;;;2095614;28;20429;-62
2021/11/05 06:20:28;;;;;;;1.85;0.80;;;;;;;;;;2100479;28;20020;-63
2021/11/05 06:21:47;;;;;;;2.42;0.55;;;;;;;;;;2098531;28;20028;-64
2021/11/05 06:23:06;;;;;;;1.50;0.70;;;;;;;;;;2095763;28;20032;-64
2021/11/05 06:24:25;;;;;;;2.13;0.77;;;;;;;;;;2096689;28;20021;-62
2021/11/05 06:25:44;;;;;;;1.15;0.90;;;;;;;;;;2096013;28;20023;-64
2021/11/05 06:27:03;;;;;;;1.67;0.70;;;;;;;;;;2093539;28;20420;-65
2021/11/05 06:28:22;;;;;;;2.05;0.77;;;;;;;;;;2096337;28;20115;-63
2021/11/05 06:29:42;;;;;;;2.55;0.90;;;;;;;;;;2096075;28;20032;-63
2021/11/05 06:31:00;;;;;;;0.70;0.70;;;;;;;;;;2094369;28;20024;-64
2021/11/05 06:32:19;;;;;;;3.63;0.88;;;;;;;;;;2095884;28;20453;-64
2021/11/05 06:33:38;;;;;;;3.85;1.35;;;;;;;;;;2096184;28;20064;-64
2021/11/05 06:34:57;;;;;;;1.02;0.93;;;;;;;;;;2097254;28;20025;-63
2021/11/05 06:36:16;;;;;;;2.35;0.90;;;;;;;;;;2096603;28;20020;-63
2021/11/05 06:37:37;;;;;;;2.30;0.80;;;;;;;;;;2096460;28;20025;-63
2021/11/05 06:38:56;;;;;;;1.17;1.02;;;;;;;;;;2094388;28;20032;-63
2021/11/05 06:40:15;;;;;;;2.03;0.70;;;;;;;;;;2095823;28;20024;-62
2021/11/05 06:41:34;;;;;;;2.45;0.90;;;;;;;;;;2096105;28;20028;-62
2021/11/05 06:42:53;;;;;;;3.72;1.00;;;;;;;;;;2097928;28;20036;-63
2021/11/05 06:44:12;;;;;;;3.03;0.90;;;;;;;;;;2097427;28;20020;-62
2021/11/05 06:45:31;;;;;;;2.38;1.00;;;;;;;;;;2096449;28;20115;-62
2021/11/05 06:46:50;;;;;;;1.90;0.85;;;;;;;;;;2097246;28;20104;-63
2021/11/05 06:48:09;;;;;;;1.65;1.13;;;;;;;;;;2096767;28;20394;-62
2021/11/05 06:49:27;;;;;;;3.22;0.80;;;;;;;;;;2097175;28;20033;-62
2021/11/05 06:50:46;;;;;;;1.88;1.17;;;;;;;;;;2095078;28;20024;-63
2021/11/05 06:52:05;;;;;;;1.63;1.10;;;;;;;;;;2094031;28;20119;-62
2021/11/05 06:53:24;;;;;;;2.72;1.10;;;;;;;;;;2096565;28;20033;-66
2021/11/05 06:54:43;;;;;;;2.17;1.50;;;;;;;;;;2097372;28;20025;-64
2021/11/05 06:56:03;;;;;;;1.08;0.98;;;;;;;;;;2097884;28;20497;-63
2021/11/05 06:57:21;;;;;;;2.67;1.45;;;;;;;;;;2094953;28;20041;-64
2021/11/05 06:58:41;;;;;;;2.22;1.50;;;;;;;;;;2094511;28;20064;-63
2021/11/05 07:00:01;;;;;;;1.60;1.27;;;;;;;;;;2099241;28;20032;-62
2021/11/05 07:01:20;;;;;;;1.35;1.27;;;;;;;;;;2097873;28;20068;-63
2021/11/05 07:02:43;;;;;;;4.38;1.70;;;;;;;;;;2099047;28;20715;-63
2021/11/05 07:04:02;;;;;;;1.58;1.30;;;;;;;;;;2096913;28;20044;-63
2021/11/05 07:05:22;;;;;;;1.83;1.38;;;;;;;;;;2098172;28;20041;-63
2021/11/05 07:06:45;;;;;;;3.00;1.67;;;;;;;;;;2097852;28;20041;-63
2021/11/05 07:08:05;;;;;;;1.85;1.38;;;;;;;;;;2096999;28;20028;-62
2021/11/05 07:09:24;;;;;;;1.55;1.30;;;;;;;;;;2100071;28;20086;-63
2021/11/05 07:10:45;;;;;;;1.73;1.35;;;;;;;;;;2097909;28;20032;-64
2021/11/05 07:12:04;;;;;;;1.48;1.38;;;;;;;;;;2096067;28;20036;-64
2021/11/05 07:13:23;;;;;;;2.55;1.40;;;;;;;;;;2098805;28;20063;-63
2021/11/05 07:14:43;;;;;;;4.65;1.30;;;;;;;;;;2096014;28;20033;-63
2021/11/05 07:16:03;;;;;;;1.40;1.30;;;;;;;;;;2098191;28;20585;-63
2021/11/05 07:17:21;;;;;;;4.00;1.38;;;;;;;;;;2097535;28;20429;-65
2021/11/05 07:18:41;;;;;;;1.40;1.27;;;;;;;;;;2098361;28;20068;-63
2021/11/05 07:19:59;;;;;;;3.58;1.48;;;;;;;;;;2099069;28;20033;-64
2021/11/05 07:21:18;;;;;;;1.83;1.67;;;;;;;;;;2096643;28;20446;-64
2021/11/05 07:22:37;;;;;;;2.75;1.48;;;;;;;;;;2096808;28;20072;-64
2021/11/05 07:24:05;;;;;;;2.20;1.08;;;;;;;;;;2097242;28;20028;-63
2021/11/05 07:25:24;;;;;;;2.35;1.20;;;;;;;;;;2094201;28;20036;-62
2021/11/05 07:26:44;;;;;;;3.92;1.52;;;;;;;;;;2098114;28;20036;-63
2021/11/05 07:28:03;;;;;;;2.17;1.50;;;;;;;;;;2098543;28;20024;-64
2021/11/05 07:29:27;;;;;;;1.25;1.17;;;;;;;;;;2092507;28;20036;-63
2021/11/05 07:30:46;;;;;;;1.40;1.30;;;;;;;;;;2097791;28;20028;-63
2021/11/05 07:32:08;;;;;;;1.60;1.50;;;;;;;;;;2098104;28;20028;-63
2021/11/05 07:33:27;;;;;;;1.50;1.40;;;;;;;;;;2096641;28;20464;-63
2021/11/05 07:34:48;;;;;;;2.15;1.17;;;;;;;;;;2094095;28;20518;-64
2021/11/05 07:36:07;;;;;;;3.80;1.48;;;;;;;;;;2098186;28;20024;-63
2021/11/05 07:37:26;;;;;;;1.58;1.48;;;;;;;;;;2095499;28;20033;-63
2021/11/05 07:38:45;;;;;;;2.08;1.40;;;;;;;;;;2095884;28;20021;-64
2021/11/05 07:40:04;;;;;;;2.88;1.45;;;;;;;;;;2097999;28;20024;-65
2021/11/05 07:41:25;;;;;;;2.83;1.08;;;;;;;;;;2097913;28;20032;-65
2021/11/05 07:42:45;;;;;;;2.15;1.40;;;;;;;;;;2098977;28;20475;-65
2021/11/05 07:44:04;;;;;;;4.20;1.40;;;;;;;;;;2097118;28;20029;-63
2021/11/05 07:45:25;;;;;;;1.35;1.25;;;;;;;;;;2098388;28;20032;-64
2021/11/05 07:46:44;;;;;;;2.83;1.40;;;;;;;;;;2097934;28;20488;-64
2021/11/05 07:48:03;;;;;;;1.70;1.60;;;;;;;;;;2098988;28;20025;-64
2021/11/05 07:49:22;;;;;;;1.38;1.20;;;;;;;;;;2097613;28;20028;-62
2021/11/05 07:50:41;;;;;;;1.60;1.50;;;;;;;;;;2098288;28;20025;-64
2021/11/05 07:52:00;;;;;;;3.45;1.55;;;;;;;;;;2099034;28;20033;-65
2021/11/05 07:53:19;;;;;;;1.83;1.42;;;;;;;;;;2098956;28;20021;-67
2021/11/05 07:54:38;;;;;;;2.35;1.60;;;;;;;;;;2096484;28;20033;-65